sensor_id;sensor_type;location;lat;lon;timestamp;P1;durP1;ratioP1;P2;durP2;ratioP2
85056;SDS011;75393;49.516;8.662;2024-01-30T00:01:47;2.00;;;1.60;;
85056;SDS011;75393;49.516;8.662;2024-01-30T00:04:13;2.17;;;1.55;;
85056;SDS011;75393;49.516;8.662;2024-01-30T00:06:38;1.63;;;1.27;;
85056;SDS011;75393;49.516;8.662;2024-01-30T00:09:03;2.53;;;1.65;;
85056;SDS011;75393;49.516;8.662;2024-01-30T00:11:30;1.98;;;1.10;;
85056;SDS011;75393;49.516;8.662;2024-01-30T00:13:55;2.97;;;1.52;;
85056;SDS011;75393;49.516;8.662;2024-01-30T00:16:24;2.30;;;1.30;;
85056;SDS011;75393;49.516;8.662;2024-01-30T00:18:50;2.33;;;1.48;;
85056;SDS011;75393;49.516;8.662;2024-01-30T00:21:16;2.13;;;1.40;;
85056;SDS011;75393;49.516;8.662;2024-01-30T00:23:42;2.60;;;1.40;;
85056;SDS011;75393;49.516;8.662;2024-01-30T00:26:07;2.65;;;1.75;;
85056;SDS011;75393;49.516;8.662;2024-01-30T00:28:32;3.00;;;1.33;;
85056;SDS011;75393;49.516;8.662;2024-01-30T00:30:58;2.05;;;1.40;;
85056;SDS011;75393;49.516;8.662;2024-01-30T00:33:23;2.40;;;1.83;;
85056;SDS011;75393;49.516;8.662;2024-01-30T00:35:49;2.45;;;1.65;;
85056;SDS011;75393;49.516;8.662;2024-01-30T00:38:14;1.88;;;1.40;;
85056;SDS011;75393;49.516;8.662;2024-01-30T00:40:39;2.70;;;1.52;;
85056;SDS011;75393;49.516;8.662;2024-01-30T00:43:04;2.13;;;1.50;;
85056;SDS011;75393;49.516;8.662;2024-01-30T00:45:30;2.92;;;2.00;;
85056;SDS011;75393;49.516;8.662;2024-01-30T00:47:56;2.28;;;1.52;;
85056;SDS011;75393;49.516;8.662;2024-01-30T00:50:21;1.85;;;1.23;;
85056;SDS011;75393;49.516;8.662;2024-01-30T00:52:46;1.65;;;1.35;;
85056;SDS011;75393;49.516;8.662;2024-01-30T00:55:12;1.60;;;1.45;;
85056;SDS011;75393;49.516;8.662;2024-01-30T00:57:38;2.38;;;1.70;;
85056;SDS011;75393;49.516;8.662;2024-01-30T01:00:03;2.75;;;1.45;;
85056;SDS011;75393;49.516;8.662;2024-01-30T01:02:31;2.80;;;1.65;;
85056;SDS011;75393;49.516;8.662;2024-01-30T01:04:56;1.65;;;1.40;;
85056;SDS011;75393;49.516;8.662;2024-01-30T01:07:21;1.60;;;1.50;;
85056;SDS011;75393;49.516;8.662;2024-01-30T01:09:47;2.25;;;1.45;;
85056;SDS011;75393;49.516;8.662;2024-01-30T01:12:12;2.03;;;1.50;;
85056;SDS011;75393;49.516;8.662;2024-01-30T01:14:38;1.55;;;1.30;;
85056;SDS011;75393;49.516;8.662;2024-01-30T01:17:03;1.90;;;1.45;;
85056;SDS011;75393;49.516;8.662;2024-01-30T01:19:29;2.58;;;1.58;;
85056;SDS011;75393;49.516;8.662;2024-01-30T01:21:54;2.30;;;1.33;;
85056;SDS011;75393;49.516;8.662;2024-01-30T01:24:19;1.27;;;1.17;;
85056;SDS011;75393;49.516;8.662;2024-01-30T01:26:45;1.85;;;1.58;;
85056;SDS011;75393;49.516;8.662;2024-01-30T01:29:10;1.75;;;1.55;;
85056;SDS011;75393;49.516;8.662;2024-01-30T01:31:37;1.60;;;1.50;;
85056;SDS011;75393;49.516;8.662;2024-01-30T01:34:05;1.58;;;1.35;;
85056;SDS011;75393;49.516;8.662;2024-01-30T01:36:30;1.92;;;1.55;;
85056;SDS011;75393;49.516;8.662;2024-01-30T01:38:56;1.90;;;1.40;;
85056;SDS011;75393;49.516;8.662;2024-01-30T01:41:21;3.07;;;1.30;;
85056;SDS011;75393;49.516;8.662;2024-01-30T01:43:46;1.95;;;1.52;;
85056;SDS011;75393;49.516;8.662;2024-01-30T01:46:12;2.88;;;1.52;;
85056;SDS011;75393;49.516;8.662;2024-01-30T01:48:37;1.98;;;1.23;;
85056;SDS011;75393;49.516;8.662;2024-01-30T01:51:04;2.53;;;1.67;;
85056;SDS011;75393;49.516;8.662;2024-01-30T01:53:30;1.27;;;1.17;;
85056;SDS011;75393;49.516;8.662;2024-01-30T01:55:56;1.58;;;1.35;;
85056;SDS011;75393;49.516;8.662;2024-01-30T01:58:21;2.25;;;1.42;;
85056;SDS011;75393;49.516;8.662;2024-01-30T02:00:48;2.05;;;1.35;;
85056;SDS011;75393;49.516;8.662;2024-01-30T02:03:14;1.75;;;1.40;;
85056;SDS011;75393;49.516;8.662;2024-01-30T02:05:46;3.42;;;1.50;;
85056;SDS011;75393;49.516;8.662;2024-01-30T02:08:11;1.83;;;1.40;;
85056;SDS011;75393;49.516;8.662;2024-01-30T02:10:37;1.33;;;1.10;;
85056;SDS011;75393;49.516;8.662;2024-01-30T02:13:02;1.90;;;1.50;;
85056;SDS011;75393;49.516;8.662;2024-01-30T02:15:28;1.40;;;1.30;;
85056;SDS011;75393;49.516;8.662;2024-01-30T02:17:54;2.03;;;1.92;;
85056;SDS011;75393;49.516;8.662;2024-01-30T02:20:27;2.70;;;1.47;;
85056;SDS011;75393;49.516;8.662;2024-01-30T02:22:56;2.50;;;1.67;;
85056;SDS011;75393;49.516;8.662;2024-01-30T02:25:33;2.25;;;1.67;;
85056;SDS011;75393;49.516;8.662;2024-01-30T02:28:01;1.50;;;1.40;;
85056;SDS011;75393;49.516;8.662;2024-01-30T02:30:26;3.03;;;1.58;;
85056;SDS011;75393;49.516;8.662;2024-01-30T02:32:51;1.55;;;1.45;;
85056;SDS011;75393;49.516;8.662;2024-01-30T02:35:17;2.17;;;1.17;;
85056;SDS011;75393;49.516;8.662;2024-01-30T02:37:42;1.60;;;1.50;;
85056;SDS011;75393;49.516;8.662;2024-01-30T02:40:08;2.42;;;1.52;;
85056;SDS011;75393;49.516;8.662;2024-01-30T02:42:33;2.75;;;1.33;;
85056;SDS011;75393;49.516;8.662;2024-01-30T02:44:58;2.08;;;1.77;;
85056;SDS011;75393;49.516;8.662;2024-01-30T02:47:24;1.63;;;1.30;;
85056;SDS011;75393;49.516;8.662;2024-01-30T02:49:50;1.88;;;1.20;;
85056;SDS011;75393;49.516;8.662;2024-01-30T02:52:22;2.28;;;1.70;;
85056;SDS011;75393;49.516;8.662;2024-01-30T02:54:47;1.67;;;1.30;;
85056;SDS011;75393;49.516;8.662;2024-01-30T02:57:13;2.15;;;1.35;;
85056;SDS011;75393;49.516;8.662;2024-01-30T02:59:38;1.85;;;1.67;;
85056;SDS011;75393;49.516;8.662;2024-01-30T03:02:03;1.50;;;1.40;;
85056;SDS011;75393;49.516;8.662;2024-01-30T03:04:29;1.63;;;1.42;;
85056;SDS011;75393;49.516;8.662;2024-01-30T03:06:55;2.38;;;1.30;;
85056;SDS011;75393;49.516;8.662;2024-01-30T03:09:20;2.13;;;1.55;;
85056;SDS011;75393;49.516;8.662;2024-01-30T03:11:45;1.95;;;1.40;;
85056;SDS011;75393;49.516;8.662;2024-01-30T03:14:11;1.83;;;1.50;;
85056;SDS011;75393;49.516;8.662;2024-01-30T03:16:37;1.85;;;1.60;;
85056;SDS011;75393;49.516;8.662;2024-01-30T03:19:03;2.33;;;1.73;;
85056;SDS011;75393;49.516;8.662;2024-01-30T03:21:28;1.77;;;1.40;;
85056;SDS011;75393;49.516;8.662;2024-01-30T03:23:54;2.13;;;1.60;;
85056;SDS011;75393;49.516;8.662;2024-01-30T03:26:19;2.42;;;1.38;;
85056;SDS011;75393;49.516;8.662;2024-01-30T03:28:45;2.42;;;1.40;;
85056;SDS011;75393;49.516;8.662;2024-01-30T03:31:10;2.60;;;1.30;;
85056;SDS011;75393;49.516;8.662;2024-01-30T03:33:36;1.90;;;1.27;;
85056;SDS011;75393;49.516;8.662;2024-01-30T03:36:05;1.60;;;1.10;;
85056;SDS011;75393;49.516;8.662;2024-01-30T03:38:30;2.58;;;1.42;;
85056;SDS011;75393;49.516;8.662;2024-01-30T03:40:58;2.05;;;1.80;;
85056;SDS011;75393;49.516;8.662;2024-01-30T03:43:24;3.33;;;1.58;;
85056;SDS011;75393;49.516;8.662;2024-01-30T03:45:49;3.47;;;1.40;;
85056;SDS011;75393;49.516;8.662;2024-01-30T03:48:14;2.10;;;1.60;;
85056;SDS011;75393;49.516;8.662;2024-01-30T03:50:40;1.85;;;1.35;;
85056;SDS011;75393;49.516;8.662;2024-01-30T03:53:05;1.65;;;1.45;;
85056;SDS011;75393;49.516;8.662;2024-01-30T03:55:30;1.85;;;1.48;;
85056;SDS011;75393;49.516;8.662;2024-01-30T03:57:56;2.08;;;1.80;;
85056;SDS011;75393;49.516;8.662;2024-01-30T04:00:21;1.67;;;1.57;;
85056;SDS011;75393;49.516;8.662;2024-01-30T04:02:46;3.00;;;1.33;;
85056;SDS011;75393;49.516;8.662;2024-01-30T04:05:11;4.72;;;1.77;;
85056;SDS011;75393;49.516;8.662;2024-01-30T04:07:37;3.47;;;1.80;;
85056;SDS011;75393;49.516;8.662;2024-01-30T04:10:02;1.48;;;1.38;;
85056;SDS011;75393;49.516;8.662;2024-01-30T04:12:30;2.08;;;1.50;;
85056;SDS011;75393;49.516;8.662;2024-01-30T04:14:56;1.45;;;1.35;;
85056;SDS011;75393;49.516;8.662;2024-01-30T04:17:21;2.05;;;1.30;;
85056;SDS011;75393;49.516;8.662;2024-01-30T04:19:46;2.10;;;1.27;;
85056;SDS011;75393;49.516;8.662;2024-01-30T04:22:12;1.85;;;1.48;;
85056;SDS011;75393;49.516;8.662;2024-01-30T04:24:37;3.10;;;1.37;;
85056;SDS011;75393;49.516;8.662;2024-01-30T04:27:03;2.00;;;1.50;;
85056;SDS011;75393;49.516;8.662;2024-01-30T04:29:28;1.63;;;1.20;;
85056;SDS011;75393;49.516;8.662;2024-01-30T04:31:54;1.83;;;1.10;;
85056;SDS011;75393;49.516;8.662;2024-01-30T04:34:19;1.45;;;1.30;;
85056;SDS011;75393;49.516;8.662;2024-01-30T04:36:44;1.83;;;1.55;;
85056;SDS011;75393;49.516;8.662;2024-01-30T04:39:12;1.60;;;1.40;;
85056;SDS011;75393;49.516;8.662;2024-01-30T04:41:38;2.25;;;1.90;;
85056;SDS011;75393;49.516;8.662;2024-01-30T04:44:03;1.70;;;1.50;;
85056;SDS011;75393;49.516;8.662;2024-01-30T04:46:28;1.60;;;1.38;;
85056;SDS011;75393;49.516;8.662;2024-01-30T04:48:54;3.10;;;1.63;;
85056;SDS011;75393;49.516;8.662;2024-01-30T04:51:19;1.40;;;1.30;;
85056;SDS011;75393;49.516;8.662;2024-01-30T04:53:44;2.83;;;1.63;;
85056;SDS011;75393;49.516;8.662;2024-01-30T04:56:10;2.10;;;1.45;;
85056;SDS011;75393;49.516;8.662;2024-01-30T04:58:35;2.08;;;1.65;;
85056;SDS011;75393;49.516;8.662;2024-01-30T05:01:01;2.30;;;1.65;;
85056;SDS011;75393;49.516;8.662;2024-01-30T05:03:27;1.50;;;1.40;;
85056;SDS011;75393;49.516;8.662;2024-01-30T05:05:52;2.17;;;1.50;;
85056;SDS011;75393;49.516;8.662;2024-01-30T05:08:17;1.73;;;1.63;;
85056;SDS011;75393;49.516;8.662;2024-01-30T05:10:43;1.90;;;1.50;;
85056;SDS011;75393;49.516;8.662;2024-01-30T05:13:08;1.60;;;1.30;;
85056;SDS011;75393;49.516;8.662;2024-01-30T05:15:33;1.73;;;1.40;;
85056;SDS011;75393;49.516;8.662;2024-01-30T05:17:59;2.00;;;1.50;;
85056;SDS011;75393;49.516;8.662;2024-01-30T05:20:24;2.33;;;1.50;;
85056;SDS011;75393;49.516;8.662;2024-01-30T05:22:52;3.13;;;1.83;;
85056;SDS011;75393;49.516;8.662;2024-01-30T05:25:18;1.50;;;1.30;;
85056;SDS011;75393;49.516;8.662;2024-01-30T05:27:43;1.55;;;1.30;;
85056;SDS011;75393;49.516;8.662;2024-01-30T05:30:09;2.40;;;2.10;;
85056;SDS011;75393;49.516;8.662;2024-01-30T05:32:35;1.50;;;1.40;;
85056;SDS011;75393;49.516;8.662;2024-01-30T05:35:00;2.20;;;1.55;;
85056;SDS011;75393;49.516;8.662;2024-01-30T05:37:26;1.67;;;1.27;;
85056;SDS011;75393;49.516;8.662;2024-01-30T05:39:51;1.67;;;1.48;;
85056;SDS011;75393;49.516;8.662;2024-01-30T05:42:16;1.58;;;1.45;;
85056;SDS011;75393;49.516;8.662;2024-01-30T05:44:42;1.70;;;1.50;;
85056;SDS011;75393;49.516;8.662;2024-01-30T05:47:07;2.00;;;1.27;;
85056;SDS011;75393;49.516;8.662;2024-01-30T05:49:33;1.48;;;1.25;;
85056;SDS011;75393;49.516;8.662;2024-01-30T05:51:58;2.05;;;1.30;;
85056;SDS011;75393;49.516;8.662;2024-01-30T05:54:23;1.48;;;1.38;;
85056;SDS011;75393;49.516;8.662;2024-01-30T05:56:49;1.67;;;1.58;;
85056;SDS011;75393;49.516;8.662;2024-01-30T05:59:14;1.35;;;1.13;;
85056;SDS011;75393;49.516;8.662;2024-01-30T06:01:45;1.73;;;1.27;;
85056;SDS011;75393;49.516;8.662;2024-01-30T06:04:11;1.23;;;1.13;;
85056;SDS011;75393;49.516;8.662;2024-01-30T06:06:36;1.55;;;1.30;;
85056;SDS011;75393;49.516;8.662;2024-01-30T06:09:02;1.75;;;1.65;;
85056;SDS011;75393;49.516;8.662;2024-01-30T06:11:27;2.47;;;1.48;;
85056;SDS011;75393;49.516;8.662;2024-01-30T06:13:52;1.58;;;1.33;;
85056;SDS011;75393;49.516;8.662;2024-01-30T06:16:18;2.40;;;1.60;;
85056;SDS011;75393;49.516;8.662;2024-01-30T06:18:45;1.73;;;1.23;;
85056;SDS011;75393;49.516;8.662;2024-01-30T06:21:11;2.55;;;1.30;;
85056;SDS011;75393;49.516;8.662;2024-01-30T06:23:36;1.58;;;1.48;;
85056;SDS011;75393;49.516;8.662;2024-01-30T06:26:02;1.45;;;1.33;;
85056;SDS011;75393;49.516;8.662;2024-01-30T06:28:27;1.90;;;1.33;;
85056;SDS011;75393;49.516;8.662;2024-01-30T06:30:52;3.25;;;1.98;;
85056;SDS011;75393;49.516;8.662;2024-01-30T06:33:18;1.80;;;1.40;;
85056;SDS011;75393;49.516;8.662;2024-01-30T06:35:43;5.28;;;1.58;;
85056;SDS011;75393;49.516;8.662;2024-01-30T06:38:10;1.75;;;1.65;;
85056;SDS011;75393;49.516;8.662;2024-01-30T06:40:36;3.28;;;1.40;;
85056;SDS011;75393;49.516;8.662;2024-01-30T06:43:02;1.50;;;1.40;;
85056;SDS011;75393;49.516;8.662;2024-01-30T06:45:29;2.30;;;1.60;;
85056;SDS011;75393;49.516;8.662;2024-01-30T06:47:54;1.77;;;1.63;;
85056;SDS011;75393;49.516;8.662;2024-01-30T06:50:20;3.03;;;1.00;;
85056;SDS011;75393;49.516;8.662;2024-01-30T06:52:45;2.15;;;1.35;;
85056;SDS011;75393;49.516;8.662;2024-01-30T06:55:11;2.78;;;1.42;;
85056;SDS011;75393;49.516;8.662;2024-01-30T06:57:36;1.92;;;1.38;;
85056;SDS011;75393;49.516;8.662;2024-01-30T07:00:01;2.60;;;1.67;;
85056;SDS011;75393;49.516;8.662;2024-01-30T07:02:27;1.40;;;1.30;;
85056;SDS011;75393;49.516;8.662;2024-01-30T07:04:53;2.50;;;1.48;;
85056;SDS011;75393;49.516;8.662;2024-01-30T07:07:18;2.63;;;1.42;;
85056;SDS011;75393;49.516;8.662;2024-01-30T07:09:43;1.67;;;1.48;;
85056;SDS011;75393;49.516;8.662;2024-01-30T07:12:09;2.60;;;1.38;;
85056;SDS011;75393;49.516;8.662;2024-01-30T07:14:34;2.55;;;1.55;;
85056;SDS011;75393;49.516;8.662;2024-01-30T07:17:00;2.78;;;1.60;;
85056;SDS011;75393;49.516;8.662;2024-01-30T07:19:25;1.45;;;1.35;;
85056;SDS011;75393;49.516;8.662;2024-01-30T07:21:51;1.33;;;1.23;;
85056;SDS011;75393;49.516;8.662;2024-01-30T07:24:16;1.63;;;1.45;;
85056;SDS011;75393;49.516;8.662;2024-01-30T07:26:41;3.58;;;1.60;;
85056;SDS011;75393;49.516;8.662;2024-01-30T07:29:07;4.78;;;1.80;;
85056;SDS011;75393;49.516;8.662;2024-01-30T07:31:32;6.70;;;1.88;;
85056;SDS011;75393;49.516;8.662;2024-01-30T07:33:57;7.95;;;1.80;;
85056;SDS011;75393;49.516;8.662;2024-01-30T07:36:23;5.07;;;1.90;;
85056;SDS011;75393;49.516;8.662;2024-01-30T07:38:48;4.97;;;1.85;;
85056;SDS011;75393;49.516;8.662;2024-01-30T07:41:13;3.60;;;1.40;;
85056;SDS011;75393;49.516;8.662;2024-01-30T07:43:38;5.28;;;1.80;;
85056;SDS011;75393;49.516;8.662;2024-01-30T07:46:04;6.60;;;1.80;;
85056;SDS011;75393;49.516;8.662;2024-01-30T07:48:31;1.95;;;1.55;;
85056;SDS011;75393;49.516;8.662;2024-01-30T07:50:58;2.47;;;1.25;;
85056;SDS011;75393;49.516;8.662;2024-01-30T07:53:24;3.97;;;1.52;;
85056;SDS011;75393;49.516;8.662;2024-01-30T07:55:49;2.03;;;1.52;;
85056;SDS011;75393;49.516;8.662;2024-01-30T07:58:14;4.25;;;1.80;;
85056;SDS011;75393;49.516;8.662;2024-01-30T08:00:40;4.78;;;2.15;;
85056;SDS011;75393;49.516;8.662;2024-01-30T08:03:05;3.00;;;1.30;;
85056;SDS011;75393;49.516;8.662;2024-01-30T08:05:30;3.00;;;1.67;;
85056;SDS011;75393;49.516;8.662;2024-01-30T08:07:56;3.20;;;1.85;;
85056;SDS011;75393;49.516;8.662;2024-01-30T08:10:21;5.13;;;1.92;;
85056;SDS011;75393;49.516;8.662;2024-01-30T08:12:47;5.45;;;1.80;;
85056;SDS011;75393;49.516;8.662;2024-01-30T08:15:12;6.70;;;1.93;;
85056;SDS011;75393;49.516;8.662;2024-01-30T08:17:38;5.90;;;1.98;;
85056;SDS011;75393;49.516;8.662;2024-01-30T08:20:03;4.32;;;1.70;;
85056;SDS011;75393;49.516;8.662;2024-01-30T08:22:29;5.47;;;1.90;;
85056;SDS011;75393;49.516;8.662;2024-01-30T08:24:55;5.15;;;2.08;;
85056;SDS011;75393;49.516;8.662;2024-01-30T08:27:20;7.23;;;2.27;;
85056;SDS011;75393;49.516;8.662;2024-01-30T08:29:46;6.03;;;2.07;;
85056;SDS011;75393;49.516;8.662;2024-01-30T08:32:11;7.03;;;2.53;;
85056;SDS011;75393;49.516;8.662;2024-01-30T08:34:36;5.68;;;1.95;;
85056;SDS011;75393;49.516;8.662;2024-01-30T08:37:02;5.95;;;2.17;;
85056;SDS011;75393;49.516;8.662;2024-01-30T08:39:28;4.03;;;2.03;;
85056;SDS011;75393;49.516;8.662;2024-01-30T08:41:53;6.93;;;2.60;;
85056;SDS011;75393;49.516;8.662;2024-01-30T08:44:19;4.50;;;1.95;;
85056;SDS011;75393;49.516;8.662;2024-01-30T08:46:44;5.43;;;1.90;;
85056;SDS011;75393;49.516;8.662;2024-01-30T08:49:10;4.35;;;1.80;;
85056;SDS011;75393;49.516;8.662;2024-01-30T08:51:38;7.20;;;2.50;;
85056;SDS011;75393;49.516;8.662;2024-01-30T08:54:03;8.57;;;2.50;;
85056;SDS011;75393;49.516;8.662;2024-01-30T08:56:29;9.60;;;2.55;;
85056;SDS011;75393;49.516;8.662;2024-01-30T08:58:54;6.50;;;1.95;;
85056;SDS011;75393;49.516;8.662;2024-01-30T09:01:19;6.28;;;2.20;;
85056;SDS011;75393;49.516;8.662;2024-01-30T09:03:45;5.47;;;2.05;;
85056;SDS011;75393;49.516;8.662;2024-01-30T09:06:11;6.55;;;2.20;;
85056;SDS011;75393;49.516;8.662;2024-01-30T09:08:37;5.63;;;2.03;;
85056;SDS011;75393;49.516;8.662;2024-01-30T09:11:13;8.20;;;1.85;;
85056;SDS011;75393;49.516;8.662;2024-01-30T09:13:40;7.75;;;2.10;;
85056;SDS011;75393;49.516;8.662;2024-01-30T09:16:06;8.90;;;2.50;;
85056;SDS011;75393;49.516;8.662;2024-01-30T09:18:31;8.68;;;2.25;;
85056;SDS011;75393;49.516;8.662;2024-01-30T09:20:57;7.22;;;2.05;;
85056;SDS011;75393;49.516;8.662;2024-01-30T09:23:22;4.85;;;2.38;;
85056;SDS011;75393;49.516;8.662;2024-01-30T09:25:48;5.22;;;2.33;;
85056;SDS011;75393;49.516;8.662;2024-01-30T09:28:13;6.63;;;2.35;;
85056;SDS011;75393;49.516;8.662;2024-01-30T09:30:39;8.65;;;3.30;;
85056;SDS011;75393;49.516;8.662;2024-01-30T09:33:04;6.85;;;2.58;;
85056;SDS011;75393;49.516;8.662;2024-01-30T09:35:30;9.75;;;2.67;;
85056;SDS011;75393;49.516;8.662;2024-01-30T09:37:56;6.05;;;2.22;;
85056;SDS011;75393;49.516;8.662;2024-01-30T09:40:22;8.68;;;2.40;;
85056;SDS011;75393;49.516;8.662;2024-01-30T09:42:47;9.68;;;2.72;;
85056;SDS011;75393;49.516;8.662;2024-01-30T09:45:15;4.20;;;2.45;;
85056;SDS011;75393;49.516;8.662;2024-01-30T09:47:41;3.85;;;2.25;;
85056;SDS011;75393;49.516;8.662;2024-01-30T09:50:08;5.78;;;2.45;;
85056;SDS011;75393;49.516;8.662;2024-01-30T09:52:34;3.33;;;2.10;;
85056;SDS011;75393;49.516;8.662;2024-01-30T09:54:59;5.75;;;2.72;;
85056;SDS011;75393;49.516;8.662;2024-01-30T09:57:26;5.30;;;2.03;;
85056;SDS011;75393;49.516;8.662;2024-01-30T09:59:51;4.13;;;2.28;;
85056;SDS011;75393;49.516;8.662;2024-01-30T10:02:19;11.02;;;2.55;;
85056;SDS011;75393;49.516;8.662;2024-01-30T10:04:44;8.02;;;2.60;;
85056;SDS011;75393;49.516;8.662;2024-01-30T10:07:09;5.65;;;2.60;;
85056;SDS011;75393;49.516;8.662;2024-01-30T10:09:36;7.65;;;2.72;;
85056;SDS011;75393;49.516;8.662;2024-01-30T10:12:02;4.28;;;2.17;;
85056;SDS011;75393;49.516;8.662;2024-01-30T10:14:48;2.70;;;1.70;;
85056;SDS011;75393;49.516;8.662;2024-01-30T10:17:13;3.92;;;1.95;;
85056;SDS011;75393;49.516;8.662;2024-01-30T10:19:39;4.72;;;2.20;;
85056;SDS011;75393;49.516;8.662;2024-01-30T10:22:05;4.15;;;1.88;;
85056;SDS011;75393;49.516;8.662;2024-01-30T10:24:30;5.55;;;2.47;;
85056;SDS011;75393;49.516;8.662;2024-01-30T10:26:56;5.15;;;2.55;;
85056;SDS011;75393;49.516;8.662;2024-01-30T10:29:22;3.08;;;2.20;;
85056;SDS011;75393;49.516;8.662;2024-01-30T10:32:03;8.07;;;2.30;;
85056;SDS011;75393;49.516;8.662;2024-01-30T10:34:29;5.40;;;2.00;;
85056;SDS011;75393;49.516;8.662;2024-01-30T10:36:59;3.33;;;1.98;;
85056;SDS011;75393;49.516;8.662;2024-01-30T10:39:40;5.28;;;1.92;;
85056;SDS011;75393;49.516;8.662;2024-01-30T10:42:06;3.78;;;2.10;;
85056;SDS011;75393;49.516;8.662;2024-01-30T10:44:39;5.75;;;2.28;;
85056;SDS011;75393;49.516;8.662;2024-01-30T10:47:11;4.55;;;2.50;;
85056;SDS011;75393;49.516;8.662;2024-01-30T10:49:39;5.10;;;2.17;;
85056;SDS011;75393;49.516;8.662;2024-01-30T10:52:05;6.78;;;2.80;;
85056;SDS011;75393;49.516;8.662;2024-01-30T10:54:31;6.28;;;2.30;;
85056;SDS011;75393;49.516;8.662;2024-01-30T10:56:56;4.45;;;2.10;;
85056;SDS011;75393;49.516;8.662;2024-01-30T10:59:23;5.13;;;2.42;;
85056;SDS011;75393;49.516;8.662;2024-01-30T11:01:49;3.05;;;2.03;;
85056;SDS011;75393;49.516;8.662;2024-01-30T11:04:15;5.00;;;2.22;;
85056;SDS011;75393;49.516;8.662;2024-01-30T11:06:41;3.47;;;2.47;;
85056;SDS011;75393;49.516;8.662;2024-01-30T11:09:10;5.03;;;2.08;;
85056;SDS011;75393;49.516;8.662;2024-01-30T11:14:15;4.32;;;2.55;;
85056;SDS011;75393;49.516;8.662;2024-01-30T11:16:40;5.00;;;2.40;;
85056;SDS011;75393;49.516;8.662;2024-01-30T11:19:10;5.90;;;2.40;;
85056;SDS011;75393;49.516;8.662;2024-01-30T11:21:45;5.80;;;2.60;;
85056;SDS011;75393;49.516;8.662;2024-01-30T11:24:10;2.75;;;2.00;;
85056;SDS011;75393;49.516;8.662;2024-01-30T11:26:39;3.60;;;2.25;;
85056;SDS011;75393;49.516;8.662;2024-01-30T11:29:07;3.35;;;2.00;;
85056;SDS011;75393;49.516;8.662;2024-01-30T11:31:33;4.13;;;2.15;;
85056;SDS011;75393;49.516;8.662;2024-01-30T11:33:58;3.35;;;1.70;;
85056;SDS011;75393;49.516;8.662;2024-01-30T11:36:25;4.72;;;2.03;;
85056;SDS011;75393;49.516;8.662;2024-01-30T11:38:51;6.13;;;2.08;;
85056;SDS011;75393;49.516;8.662;2024-01-30T11:41:17;3.75;;;1.90;;
85056;SDS011;75393;49.516;8.662;2024-01-30T11:43:43;2.78;;;1.92;;
85056;SDS011;75393;49.516;8.662;2024-01-30T11:46:08;5.30;;;2.20;;
85056;SDS011;75393;49.516;8.662;2024-01-30T11:48:34;4.75;;;2.22;;
85056;SDS011;75393;49.516;8.662;2024-01-30T11:51:00;4.15;;;2.40;;
85056;SDS011;75393;49.516;8.662;2024-01-30T11:53:25;3.75;;;1.83;;
85056;SDS011;75393;49.516;8.662;2024-01-30T11:55:51;2.67;;;1.52;;
85056;SDS011;75393;49.516;8.662;2024-01-30T11:58:16;2.03;;;1.02;;
85056;SDS011;75393;49.516;8.662;2024-01-30T12:00:42;2.72;;;1.63;;
85056;SDS011;75393;49.516;8.662;2024-01-30T12:03:07;2.78;;;1.55;;
85056;SDS011;75393;49.516;8.662;2024-01-30T12:05:33;2.58;;;1.52;;
85056;SDS011;75393;49.516;8.662;2024-01-30T12:07:58;2.47;;;1.92;;
85056;SDS011;75393;49.516;8.662;2024-01-30T12:10:24;4.30;;;1.60;;
85056;SDS011;75393;49.516;8.662;2024-01-30T12:12:49;4.03;;;1.83;;
85056;SDS011;75393;49.516;8.662;2024-01-30T12:15:16;5.60;;;2.00;;
85056;SDS011;75393;49.516;8.662;2024-01-30T12:17:42;3.60;;;2.00;;
85056;SDS011;75393;49.516;8.662;2024-01-30T12:20:08;5.00;;;2.03;;
85056;SDS011;75393;49.516;8.662;2024-01-30T12:22:42;5.55;;;1.95;;
85056;SDS011;75393;49.516;8.662;2024-01-30T12:25:18;3.45;;;1.88;;
85056;SDS011;75393;49.516;8.662;2024-01-30T12:27:46;5.93;;;1.92;;
85056;SDS011;75393;49.516;8.662;2024-01-30T12:30:16;5.97;;;1.65;;
85056;SDS011;75393;49.516;8.662;2024-01-30T12:32:51;6.80;;;2.85;;
85056;SDS011;75393;49.516;8.662;2024-01-30T12:35:17;3.58;;;2.10;;
85056;SDS011;75393;49.516;8.662;2024-01-30T12:37:44;7.43;;;1.95;;
85056;SDS011;75393;49.516;8.662;2024-01-30T12:40:11;3.30;;;1.92;;
85056;SDS011;75393;49.516;8.662;2024-01-30T12:42:39;4.03;;;1.90;;
85056;SDS011;75393;49.516;8.662;2024-01-30T12:45:05;6.47;;;1.95;;
85056;SDS011;75393;49.516;8.662;2024-01-30T12:47:31;5.13;;;2.13;;
85056;SDS011;75393;49.516;8.662;2024-01-30T12:49:57;7.43;;;2.40;;
85056;SDS011;75393;49.516;8.662;2024-01-30T12:52:22;5.07;;;1.83;;
85056;SDS011;75393;49.516;8.662;2024-01-30T12:54:48;6.07;;;2.35;;
85056;SDS011;75393;49.516;8.662;2024-01-30T12:57:14;5.22;;;2.08;;
85056;SDS011;75393;49.516;8.662;2024-01-30T12:59:39;4.65;;;2.13;;
85056;SDS011;75393;49.516;8.662;2024-01-30T13:02:12;7.57;;;2.13;;
85056;SDS011;75393;49.516;8.662;2024-01-30T13:04:38;7.78;;;2.35;;
85056;SDS011;75393;49.516;8.662;2024-01-30T13:07:03;5.20;;;1.95;;
85056;SDS011;75393;49.516;8.662;2024-01-30T13:09:31;6.25;;;2.45;;
85056;SDS011;75393;49.516;8.662;2024-01-30T13:11:57;7.30;;;2.08;;
85056;SDS011;75393;49.516;8.662;2024-01-30T13:14:23;7.10;;;2.78;;
85056;SDS011;75393;49.516;8.662;2024-01-30T13:16:55;7.40;;;1.92;;
85056;SDS011;75393;49.516;8.662;2024-01-30T13:19:21;5.70;;;2.30;;
85056;SDS011;75393;49.516;8.662;2024-01-30T13:21:46;3.85;;;2.40;;
85056;SDS011;75393;49.516;8.662;2024-01-30T13:24:12;4.25;;;1.77;;
85056;SDS011;75393;49.516;8.662;2024-01-30T13:26:38;4.72;;;2.65;;
85056;SDS011;75393;49.516;8.662;2024-01-30T13:29:04;6.35;;;1.90;;
85056;SDS011;75393;49.516;8.662;2024-01-30T13:31:29;4.25;;;2.13;;
85056;SDS011;75393;49.516;8.662;2024-01-30T13:34:01;7.47;;;2.25;;
85056;SDS011;75393;49.516;8.662;2024-01-30T13:36:27;7.70;;;2.03;;
85056;SDS011;75393;49.516;8.662;2024-01-30T13:38:52;3.50;;;1.70;;
85056;SDS011;75393;49.516;8.662;2024-01-30T13:41:18;5.07;;;2.30;;
85056;SDS011;75393;49.516;8.662;2024-01-30T13:43:43;3.67;;;1.60;;
85056;SDS011;75393;49.516;8.662;2024-01-30T13:46:09;5.20;;;2.50;;
85056;SDS011;75393;49.516;8.662;2024-01-30T13:48:35;5.85;;;2.13;;
85056;SDS011;75393;49.516;8.662;2024-01-30T13:51:00;4.97;;;2.10;;
85056;SDS011;75393;49.516;8.662;2024-01-30T13:53:25;4.15;;;2.15;;
85056;SDS011;75393;49.516;8.662;2024-01-30T13:55:51;3.05;;;1.83;;
85056;SDS011;75393;49.516;8.662;2024-01-30T13:58:16;2.92;;;1.70;;
85056;SDS011;75393;49.516;8.662;2024-01-30T14:00:41;3.17;;;2.00;;
85056;SDS011;75393;49.516;8.662;2024-01-30T14:03:07;3.60;;;1.88;;
85056;SDS011;75393;49.516;8.662;2024-01-30T14:05:32;3.55;;;2.17;;
85056;SDS011;75393;49.516;8.662;2024-01-30T14:07:57;3.35;;;1.67;;
85056;SDS011;75393;49.516;8.662;2024-01-30T14:10:24;6.03;;;2.00;;
85056;SDS011;75393;49.516;8.662;2024-01-30T14:12:50;4.15;;;1.85;;
85056;SDS011;75393;49.516;8.662;2024-01-30T14:15:15;5.90;;;1.90;;
85056;SDS011;75393;49.516;8.662;2024-01-30T14:17:43;7.00;;;2.65;;
85056;SDS011;75393;49.516;8.662;2024-01-30T14:20:10;4.13;;;1.90;;
85056;SDS011;75393;49.516;8.662;2024-01-30T14:22:35;2.85;;;2.25;;
85056;SDS011;75393;49.516;8.662;2024-01-30T14:25:01;6.88;;;1.90;;
85056;SDS011;75393;49.516;8.662;2024-01-30T14:27:28;6.93;;;2.22;;
85056;SDS011;75393;49.516;8.662;2024-01-30T14:29:55;5.30;;;1.88;;
85056;SDS011;75393;49.516;8.662;2024-01-30T14:32:20;4.15;;;1.55;;
85056;SDS011;75393;49.516;8.662;2024-01-30T14:34:46;3.83;;;1.67;;
85056;SDS011;75393;49.516;8.662;2024-01-30T14:37:11;5.38;;;2.30;;
85056;SDS011;75393;49.516;8.662;2024-01-30T14:39:36;9.50;;;2.92;;
85056;SDS011;75393;49.516;8.662;2024-01-30T14:42:02;4.47;;;1.92;;
85056;SDS011;75393;49.516;8.662;2024-01-30T14:44:29;4.80;;;1.73;;